createdAt,value
2022-11-06T00:01:45.381Z,4.60
2022-11-06T00:04:12.192Z,4.70
2022-11-06T00:06:50.773Z,3.30
2022-11-06T00:09:18.817Z,4.70
2022-11-06T00:11:45.447Z,3.40
2022-11-06T00:14:12.134Z,4.80
2022-11-06T00:16:39.482Z,5.40
2022-11-06T00:19:06.598Z,3.50
2022-11-06T00:21:33.946Z,5.60
2022-11-06T00:24:01.377Z,4.30
2022-11-06T00:26:28.813Z,3.70
2022-11-06T00:28:55.808Z,3.60
2022-11-06T00:31:23.862Z,5.40
2022-11-06T00:33:50.991Z,5.60
2022-11-06T00:36:19.123Z,5.60
2022-11-06T00:38:45.771Z,5.00
2022-11-06T00:41:14.228Z,4.60
2022-11-06T00:43:40.996Z,5.10
2022-11-06T00:46:08.961Z,4.10
2022-11-06T00:48:36.167Z,3.10
2022-11-06T00:51:23.194Z,4.70
2022-11-06T00:53:53.689Z,2.90
2022-11-06T00:56:20.668Z,4.10
2022-11-06T00:58:47.736Z,4.30
2022-11-06T01:01:20.128Z,4.30
2022-11-06T01:03:47.837Z,4.10
2022-11-06T01:06:15.692Z,4.40
2022-11-06T01:08:42.716Z,4.10
2022-11-06T01:11:15.134Z,4.60
2022-11-06T01:13:42.311Z,4.90
2022-11-06T01:16:09.809Z,4.50
2022-11-06T01:18:37.313Z,2.70
2022-11-06T01:21:04.958Z,4.60
2022-11-06T01:23:31.611Z,3.90
2022-11-06T01:25:59.401Z,4.30
2022-11-06T01:28:26.525Z,4.30
2022-11-06T01:30:53.410Z,4.60
2022-11-06T01:33:20.150Z,4.30
2022-11-06T01:35:50.273Z,2.60
2022-11-06T01:38:20.291Z,4.10
2022-11-06T01:40:47.459Z,3.80
2022-11-06T01:43:16.053Z,2.60
2022-11-06T01:45:44.054Z,2.40
2022-11-06T01:48:11.415Z,3.70
2022-11-06T01:50:38.852Z,3.30
2022-11-06T01:53:05.624Z,2.30
2022-11-06T01:55:35.890Z,3.80
2022-11-06T01:58:03.420Z,3.70
2022-11-06T02:00:31.260Z,3.70
2022-11-06T02:02:58.487Z,3.30
2022-11-06T02:05:25.352Z,4.30
2022-11-06T02:07:52.032Z,3.50
2022-11-06T02:10:18.794Z,4.80
2022-11-06T02:12:51.385Z,4.40
2022-11-06T02:15:33.412Z,4.40
2022-11-06T02:18:24.044Z,2.40
2022-11-06T02:21:05.383Z,2.30
2022-11-06T02:23:41.286Z,1.90
2022-11-06T02:26:14.309Z,1.80
2022-11-06T02:28:49.534Z,-0.50
2022-11-06T02:31:20.291Z,1.70
2022-11-06T02:33:49.061Z,1.70
2022-11-06T02:36:19.724Z,1.70
2022-11-06T02:38:48.879Z,2.00
2022-11-06T02:41:21.094Z,1.60
2022-11-06T02:43:51.418Z,1.60
2022-11-06T02:46:20.497Z,1.60
2022-11-06T02:48:50.420Z,1.90
2022-11-06T02:51:19.787Z,2.90
2022-11-06T02:53:47.920Z,2.00
2022-11-06T02:56:23.643Z,3.20
2022-11-06T02:58:50.356Z,1.60
2022-11-06T03:01:23.314Z,3.20
2022-11-06T03:03:53.212Z,1.60
2022-11-06T03:06:22.927Z,3.50
2022-11-06T03:09:09.881Z,1.70
2022-11-06T03:11:39.190Z,3.50
2022-11-06T03:14:05.897Z,3.50
2022-11-06T03:16:52.807Z,4.10
2022-11-06T03:19:19.607Z,3.40
2022-11-06T03:21:52.733Z,1.90
2022-11-06T03:24:29.807Z,3.00
2022-11-06T03:26:59.115Z,2.90
2022-11-06T03:29:31.787Z,4.10
2022-11-06T03:32:05.623Z,3.50
2022-11-06T03:34:35.590Z,1.80
2022-11-06T03:37:05.475Z,1.80
2022-11-06T03:39:34.301Z,1.80
2022-11-06T03:42:10.187Z,1.90
2022-11-06T03:44:39.635Z,1.90
2022-11-06T03:47:13.360Z,2.00
2022-11-06T03:49:43.369Z,2.10
2022-11-06T03:52:16.019Z,2.20
2022-11-06T03:54:46.219Z,2.30
2022-11-06T03:57:18.601Z,2.40
2022-11-06T03:59:48.115Z,2.40
2022-11-06T04:02:16.298Z,2.50
2022-11-06T04:04:45.283Z,2.50
2022-11-06T04:07:14.526Z,2.50
2022-11-06T04:10:00.281Z,2.40
2022-11-06T04:12:47.111Z,2.60
2022-11-06T04:15:16.707Z,2.70
2022-11-06T04:17:43.535Z,2.70
2022-11-06T04:20:12.212Z,2.70
2022-11-06T04:22:48.665Z,2.70
2022-11-06T04:25:52.079Z,2.60
2022-11-06T04:28:18.740Z,2.60
2022-11-06T04:31:02.037Z,2.60
2022-11-06T04:33:39.753Z,2.60
2022-11-06T04:36:11.932Z,2.50
2022-11-06T04:38:57.537Z,2.30
2022-11-06T04:41:34.526Z,2.20
2022-11-06T04:44:04.138Z,2.20
2022-11-06T04:46:33.669Z,2.20
2022-11-06T04:49:01.546Z,2.20
2022-11-06T04:51:31.617Z,2.20
2022-11-06T04:53:58.267Z,2.20
2022-11-06T04:56:32.873Z,2.30
2022-11-06T04:59:01.499Z,2.20
2022-11-06T05:01:28.314Z,2.10
2022-11-06T05:03:55.032Z,2.10
2022-11-06T05:06:27.001Z,2.10
2022-11-06T05:08:57.872Z,3.50
2022-11-06T05:11:24.590Z,2.00
2022-11-06T05:13:51.200Z,2.00
2022-11-06T05:16:17.910Z,2.10
2022-11-06T05:18:44.793Z,2.10
2022-11-06T05:21:30.353Z,2.00
2022-11-06T05:23:57.093Z,1.90
2022-11-06T05:26:23.792Z,1.80
2022-11-06T05:28:50.474Z,1.80
2022-11-06T05:31:17.099Z,1.80
2022-11-06T05:33:43.784Z,1.90
2022-11-06T05:36:10.356Z,1.80
2022-11-06T05:38:37.030Z,1.80
2022-11-06T05:41:03.659Z,1.90
2022-11-06T05:43:30.382Z,2.90
2022-11-06T05:45:56.977Z,2.00
2022-11-06T05:48:23.621Z,1.80
2022-11-06T05:50:50.336Z,1.70
2022-11-06T05:53:16.975Z,1.60
2022-11-06T05:55:45.501Z,1.40
2022-11-06T05:58:12.449Z,1.30
2022-11-06T06:00:39.327Z,1.30
2022-11-06T06:03:06.129Z,1.20
2022-11-06T06:05:32.819Z,1.20
2022-11-06T06:07:59.519Z,1.10
2022-11-06T06:10:26.152Z,1.10
2022-11-06T06:12:52.837Z,1.10
2022-11-06T06:15:19.501Z,1.10
2022-11-06T06:17:46.652Z,1.20
2022-11-06T06:20:13.653Z,1.40
2022-11-06T06:22:40.377Z,1.40
2022-11-06T06:25:14.676Z,1.40
2022-11-06T06:27:47.964Z,1.30
2022-11-06T06:30:14.779Z,1.40
2022-11-06T06:32:41.549Z,1.30
2022-11-06T06:35:08.230Z,1.30
2022-11-06T06:37:35.152Z,2.10
2022-11-06T06:40:01.839Z,1.30
2022-11-06T06:42:31.354Z,1.40
2022-11-06T06:44:58.320Z,1.40
2022-11-06T06:47:24.952Z,1.30
2022-11-06T06:49:51.625Z,1.40
2022-11-06T06:52:18.352Z,1.40
2022-11-06T06:54:45.318Z,1.40
2022-11-06T06:57:12.102Z,1.60
2022-11-06T06:59:38.727Z,1.50
2022-11-06T07:02:05.417Z,1.60
2022-11-06T07:04:32.084Z,1.60
2022-11-06T07:06:58.851Z,3.00
2022-11-06T07:09:25.616Z,1.60
2022-11-06T07:11:52.366Z,1.60
2022-11-06T07:14:19.611Z,1.60
2022-11-06T07:16:51.139Z,1.70
2022-11-06T07:19:20.609Z,1.70
2022-11-06T07:21:47.388Z,1.70
2022-11-06T07:24:14.126Z,1.80
2022-11-06T07:26:40.741Z,1.80
2022-11-06T07:29:08.397Z,1.80
2022-11-06T07:31:35.115Z,1.90
2022-11-06T07:34:01.766Z,2.00
2022-11-06T07:36:28.429Z,2.00
2022-11-06T07:38:55.058Z,2.00
2022-11-06T07:41:21.768Z,2.10
2022-11-06T07:43:49.550Z,2.20
2022-11-06T07:46:16.200Z,2.20
2022-11-06T07:48:42.951Z,2.20
2022-11-06T07:51:10.731Z,2.20
2022-11-06T07:53:37.886Z,2.20
2022-11-06T07:56:04.714Z,3.40
2022-11-06T07:58:31.405Z,2.40
2022-11-06T08:00:58.625Z,2.50
2022-11-06T08:03:26.038Z,2.60
2022-11-06T08:05:52.696Z,2.60
2022-11-06T08:08:19.381Z,2.60
2022-11-06T08:10:47.645Z,2.60
2022-11-06T08:13:15.911Z,2.60
2022-11-06T08:15:43.142Z,2.50
2022-11-06T08:18:10.720Z,2.50
2022-11-06T08:20:38.705Z,2.60
2022-11-06T08:23:06.652Z,2.60
2022-11-06T08:25:33.859Z,2.70
2022-11-06T08:28:01.686Z,2.70
2022-11-06T08:30:29.187Z,2.60
2022-11-06T08:32:55.970Z,2.60
2022-11-06T08:35:22.593Z,2.50
2022-11-06T08:37:49.207Z,2.50
2022-11-06T08:40:15.978Z,2.50
2022-11-06T08:42:42.695Z,2.60
2022-11-06T08:45:09.606Z,2.70
2022-11-06T08:47:36.239Z,2.70
2022-11-06T08:50:02.985Z,3.00
2022-11-06T08:52:33.877Z,3.10
2022-11-06T08:55:00.979Z,3.20
2022-11-06T08:57:28.269Z,3.30
2022-11-06T08:59:54.918Z,3.30
2022-11-06T09:02:21.752Z,3.30
2022-11-06T09:04:48.495Z,3.40
2022-11-06T09:07:15.688Z,3.50
2022-11-06T09:09:42.474Z,3.50
2022-11-06T09:12:09.271Z,3.60
2022-11-06T09:14:35.888Z,3.60
2022-11-06T09:17:02.569Z,3.70
2022-11-06T09:19:29.252Z,3.70
2022-11-06T09:21:56.041Z,3.70
2022-11-06T09:24:43.191Z,3.80
2022-11-06T09:27:09.619Z,3.90
2022-11-06T09:29:36.282Z,4.00
2022-11-06T09:32:03.179Z,4.00
2022-11-06T09:34:29.760Z,4.00
2022-11-06T09:36:56.436Z,4.10
2022-11-06T09:39:23.123Z,4.20
2022-11-06T09:41:58.204Z,4.30
2022-11-06T09:44:44.501Z,4.50
2022-11-06T09:47:17.641Z,4.80
2022-11-06T09:49:49.208Z,4.90
2022-11-06T09:52:35.021Z,5.20
2022-11-06T09:55:04.573Z,5.30
2022-11-06T09:57:40.141Z,5.50
2022-11-06T10:00:07.993Z,5.60
2022-11-06T10:02:43.016Z,5.80
2022-11-06T10:05:28.607Z,5.90
2022-11-06T10:07:57.099Z,5.90
2022-11-06T10:10:27.014Z,6.00
2022-11-06T10:12:53.661Z,5.90
2022-11-06T10:15:24.959Z,7.10
2022-11-06T10:18:12.391Z,6.10
2022-11-06T10:20:47.904Z,5.90
2022-11-06T10:23:36.523Z,6.00
2022-11-06T10:26:30.009Z,5.90
2022-11-06T10:29:18.479Z,6.00
2022-11-06T10:31:51.399Z,6.00
2022-11-06T10:34:21.166Z,6.10
2022-11-06T10:36:52.967Z,6.20
2022-11-06T10:39:25.056Z,6.30
2022-11-06T10:41:54.287Z,6.50
2022-11-06T10:44:47.303Z,7.40
2022-11-06T10:47:19.467Z,6.80
2022-11-06T10:49:49.195Z,7.00
2022-11-06T10:52:29.283Z,7.20
2022-11-06T10:55:09.258Z,7.40
2022-11-06T10:57:54.894Z,7.40
2022-11-06T11:00:21.594Z,7.50
2022-11-06T11:02:51.626Z,7.80
2022-11-06T11:05:20.210Z,9.40
2022-11-06T11:07:47.877Z,9.30
2022-11-06T11:10:23.648Z,8.70
2022-11-06T11:12:57.695Z,7.70
2022-11-06T11:15:28.588Z,7.70
2022-11-06T11:18:14.210Z,7.70
2022-11-06T11:20:45.695Z,7.70
2022-11-06T11:23:15.401Z,7.80
2022-11-06T11:25:47.109Z,7.80
2022-11-06T11:28:33.978Z,8.90
2022-11-06T11:31:06.619Z,7.80
2022-11-06T11:33:33.702Z,7.90
2022-11-06T11:36:02.375Z,7.90
2022-11-06T11:38:29.207Z,9.00
2022-11-06T11:41:06.066Z,9.20
2022-11-06T11:43:33.118Z,7.70
2022-11-06T11:46:04.313Z,7.60
2022-11-06T11:48:47.915Z,7.60
2022-11-06T11:51:20.775Z,7.50
2022-11-06T11:53:47.446Z,7.50
2022-11-06T11:56:26.567Z,8.20
2022-11-06T11:59:03.487Z,7.50
2022-11-06T12:01:35.752Z,7.50
2022-11-06T12:04:07.887Z,7.50
2022-11-06T12:06:34.644Z,7.50
2022-11-06T12:09:01.349Z,7.50
2022-11-06T12:11:29.589Z,7.50
2022-11-06T12:14:15.089Z,7.50
2022-11-06T12:16:42.078Z,7.50
2022-11-06T12:19:09.331Z,7.80
2022-11-06T12:21:39.276Z,8.80
2022-11-06T12:24:11.098Z,7.30
2022-11-06T12:26:53.078Z,7.40
2022-11-06T12:29:25.814Z,7.40
2022-11-06T12:31:59.655Z,7.40
2022-11-06T12:34:45.214Z,7.50
2022-11-06T12:37:24.928Z,7.60
2022-11-06T12:40:00.616Z,7.80
2022-11-06T12:42:30.193Z,7.90
2022-11-06T12:44:56.949Z,8.00
2022-11-06T12:47:26.452Z,8.10
2022-11-06T12:49:53.328Z,8.20
2022-11-06T12:52:42.199Z,9.00
2022-11-06T12:55:19.152Z,8.30
2022-11-06T12:58:01.414Z,8.50
2022-11-06T13:00:33.271Z,8.50
2022-11-06T13:02:59.922Z,8.60
2022-11-06T13:05:30.415Z,9.90
2022-11-06T13:07:57.110Z,9.10
2022-11-06T13:10:31.074Z,9.40
2022-11-06T13:13:11.436Z,8.60
2022-11-06T13:15:45.551Z,8.60
2022-11-06T13:18:12.443Z,8.70
2022-11-06T13:20:59.549Z,8.70
2022-11-06T13:23:30.975Z,8.70
2022-11-06T13:26:05.101Z,8.70
2022-11-06T13:28:34.924Z,8.70
2022-11-06T13:31:06.378Z,9.30
2022-11-06T13:33:59.182Z,9.50
2022-11-06T13:36:27.008Z,8.80
2022-11-06T13:38:55.209Z,9.10
2022-11-06T13:41:23.792Z,8.90
2022-11-06T13:44:18.604Z,9.40
2022-11-06T13:46:47.347Z,8.80
2022-11-06T13:49:16.994Z,9.80
2022-11-06T13:51:43.658Z,8.80
2022-11-06T13:54:29.198Z,8.80
2022-11-06T13:57:05.215Z,8.80
2022-11-06T13:59:37.956Z,8.70
2022-11-06T14:02:07.726Z,8.70
2022-11-06T14:04:53.780Z,8.70
2022-11-06T14:07:21.419Z,8.60
2022-11-06T14:09:48.523Z,9.70
2022-11-06T14:12:20.687Z,10.10
2022-11-06T14:14:47.873Z,8.60
2022-11-06T14:17:17.783Z,8.60
2022-11-06T14:19:51.128Z,8.50
2022-11-06T14:22:36.408Z,8.50
2022-11-06T14:25:22.021Z,8.50
2022-11-06T14:27:48.671Z,8.50
2022-11-06T14:30:15.332Z,9.60
2022-11-06T14:32:43.328Z,10.20
2022-11-06T14:35:28.266Z,9.70
2022-11-06T14:38:10.253Z,8.30
2022-11-06T14:40:37.830Z,8.30
2022-11-06T14:43:19.787Z,8.30
2022-11-06T14:45:55.151Z,8.20
2022-11-06T14:48:26.199Z,8.20
2022-11-06T14:50:52.871Z,8.20
2022-11-06T14:53:21.701Z,8.70
2022-11-06T14:55:59.443Z,9.30
2022-11-06T14:58:31.961Z,8.20
2022-11-06T15:01:03.238Z,8.20
2022-11-06T15:03:44.704Z,8.30
2022-11-06T15:06:31.591Z,8.30
2022-11-06T15:08:59.749Z,8.30
2022-11-06T15:11:29.488Z,8.30
2022-11-06T15:14:01.167Z,8.20
2022-11-06T15:16:37.235Z,8.10
2022-11-06T15:19:05.962Z,8.10
2022-11-06T15:21:46.562Z,9.70
2022-11-06T15:24:17.403Z,8.00
2022-11-06T15:26:51.596Z,9.30
2022-11-06T15:29:26.114Z,7.80
2022-11-06T15:31:54.659Z,7.80
2022-11-06T15:34:24.470Z,7.70
2022-11-06T15:36:52.836Z,7.70
2022-11-06T15:39:24.364Z,7.70
2022-11-06T15:41:52.260Z,7.60
2022-11-06T15:44:20.003Z,8.80
2022-11-06T15:46:54.034Z,7.60
2022-11-06T15:49:20.914Z,7.50
2022-11-06T15:51:58.290Z,9.10
2022-11-06T15:54:36.518Z,7.40
2022-11-06T15:57:05.080Z,7.40
2022-11-06T15:59:31.877Z,8.60
2022-11-06T16:02:04.129Z,7.40
2022-11-06T16:04:31.410Z,9.00
2022-11-06T16:07:00.090Z,7.30
2022-11-06T16:09:27.107Z,7.30
2022-11-06T16:11:54.032Z,7.30
2022-11-06T16:14:21.120Z,7.30
2022-11-06T16:16:48.913Z,7.30
2022-11-06T16:19:35.799Z,7.20
2022-11-06T16:22:07.603Z,7.20
2022-11-06T16:24:39.411Z,8.20
2022-11-06T16:27:06.781Z,8.30
2022-11-06T16:29:33.655Z,7.20
2022-11-06T16:32:03.393Z,7.20
2022-11-06T16:34:30.007Z,7.20
2022-11-06T16:36:59.770Z,7.30
2022-11-06T16:39:40.109Z,7.20
2022-11-06T16:42:22.144Z,8.30
2022-11-06T16:44:50.283Z,7.30
2022-11-06T16:47:18.518Z,7.30
2022-11-06T16:49:53.688Z,7.30
2022-11-06T16:52:30.379Z,7.30
2022-11-06T16:54:59.205Z,7.40
2022-11-06T16:57:49.200Z,7.40
2022-11-06T17:00:24.102Z,7.40
2022-11-06T17:02:53.322Z,7.40
2022-11-06T17:05:24.429Z,7.40
2022-11-06T17:08:08.535Z,7.40
2022-11-06T17:10:35.097Z,7.40
2022-11-06T17:13:17.332Z,7.40
2022-11-06T17:15:45.578Z,7.40
2022-11-06T17:18:14.807Z,7.40
2022-11-06T17:20:43.747Z,7.40
2022-11-06T17:23:15.732Z,7.50
2022-11-06T17:25:43.309Z,7.40
2022-11-06T17:28:10.549Z,7.40
2022-11-06T17:30:37.926Z,7.40
2022-11-06T17:33:04.585Z,8.70
2022-11-06T17:35:31.226Z,7.40
2022-11-06T17:37:59.864Z,8.30
2022-11-06T17:40:30.896Z,7.40
2022-11-06T17:42:57.668Z,8.60
2022-11-06T17:45:24.501Z,7.40
2022-11-06T17:47:51.184Z,8.90
2022-11-06T17:50:17.945Z,7.30
2022-11-06T17:52:44.666Z,8.80
2022-11-06T17:55:11.389Z,7.30
2022-11-06T17:57:38.033Z,7.40
2022-11-06T18:00:05.025Z,7.30
2022-11-06T18:02:55.295Z,7.30
2022-11-06T18:05:18.781Z,7.30
2022-11-06T18:07:45.518Z,7.30
2022-11-06T18:10:12.174Z,8.00
2022-11-06T18:12:38.858Z,7.20
2022-11-06T18:15:05.697Z,7.20
2022-11-06T18:17:32.659Z,7.20
2022-11-06T18:19:59.323Z,7.20
2022-11-06T18:22:26.029Z,7.20
2022-11-06T18:24:52.666Z,7.20
2022-11-06T18:27:19.338Z,7.20
2022-11-06T18:29:46.060Z,7.20
2022-11-06T18:32:12.710Z,7.20
2022-11-06T18:34:39.381Z,8.10
2022-11-06T18:37:06.037Z,7.30
2022-11-06T18:39:32.726Z,8.30
2022-11-06T18:41:59.623Z,8.60
2022-11-06T18:44:26.263Z,8.40
2022-11-06T18:46:52.974Z,7.20
2022-11-06T18:49:19.688Z,8.50
2022-11-06T18:51:46.419Z,8.10
2022-11-06T18:54:13.148Z,7.20
2022-11-06T18:56:39.835Z,7.20
2022-11-06T18:59:07.777Z,8.70
2022-11-06T19:01:35.487Z,7.20
2022-11-06T19:04:03.860Z,7.20
2022-11-06T19:06:31.073Z,7.20
2022-11-06T19:08:58.086Z,7.50
2022-11-06T19:11:24.780Z,7.10
2022-11-06T19:13:51.446Z,7.20
2022-11-06T19:16:21.147Z,8.20
2022-11-06T19:21:28.973Z,7.20
2022-11-06T19:24:04.664Z,8.20
2022-11-06T19:26:32.963Z,7.20
2022-11-06T19:29:00.416Z,7.20
2022-11-06T19:31:30.544Z,7.20
2022-11-06T19:33:57.901Z,7.20
2022-11-06T19:36:27.178Z,9.10
2022-11-06T19:38:54.099Z,7.20
2022-11-06T19:41:20.769Z,8.40
2022-11-06T19:43:47.503Z,7.20
2022-11-06T19:46:18.194Z,8.70
2022-11-06T19:48:47.616Z,7.20
2022-11-06T19:51:15.635Z,7.70
2022-11-06T19:53:42.696Z,8.60
2022-11-06T19:56:10.456Z,8.20
2022-11-06T19:58:37.219Z,7.30
2022-11-06T20:01:08.016Z,7.40
2022-11-06T20:03:35.013Z,7.50
2022-11-06T20:06:06.566Z,7.60
2022-11-06T20:08:34.887Z,8.60
2022-11-06T20:11:02.023Z,8.50
2022-11-06T20:13:28.708Z,7.80
2022-11-06T20:15:58.540Z,7.80
2022-11-06T20:18:25.220Z,7.80
2022-11-06T20:20:51.885Z,9.20
2022-11-06T20:23:18.579Z,7.70
2022-11-06T20:25:45.521Z,9.20
2022-11-06T20:28:12.272Z,7.70
2022-11-06T20:30:38.922Z,9.10
2022-11-06T20:33:05.598Z,7.80
2022-11-06T20:35:32.722Z,7.80
2022-11-06T20:37:59.359Z,8.50
2022-11-06T20:40:29.185Z,8.00
2022-11-06T20:43:00.240Z,8.10
2022-11-06T20:45:27.005Z,8.20
2022-11-06T20:47:53.754Z,8.00
2022-11-06T20:50:20.421Z,8.00
2022-11-06T20:52:47.642Z,9.40
2022-11-06T20:55:14.266Z,8.10
2022-11-06T20:57:41.035Z,8.00
2022-11-06T21:00:08.117Z,9.90
2022-11-06T21:02:35.086Z,8.10
2022-11-06T21:05:01.945Z,8.10
2022-11-06T21:07:28.598Z,8.10
2022-11-06T21:09:55.230Z,8.10
2022-11-06T21:12:22.896Z,6.90
2022-11-06T21:14:49.591Z,10.10
2022-11-06T21:17:16.243Z,7.10
2022-11-06T21:19:43.004Z,8.10
2022-11-06T21:22:09.664Z,8.10
2022-11-06T21:24:36.313Z,8.10
2022-11-06T21:27:03.088Z,8.10
2022-11-06T21:29:29.825Z,8.10
2022-11-06T21:31:56.496Z,8.80
2022-11-06T21:34:23.170Z,8.10
2022-11-06T21:36:49.884Z,8.10
2022-11-06T21:39:18.396Z,8.10
2022-11-06T21:41:45.428Z,8.10
2022-11-06T21:44:13.208Z,9.50
2022-11-06T21:46:44.222Z,8.10
2022-11-06T21:49:12.644Z,8.20
2022-11-06T21:51:39.466Z,8.10
2022-11-06T21:54:24.894Z,8.70
2022-11-06T21:56:51.641Z,10.00
2022-11-06T21:59:19.409Z,9.60
2022-11-06T22:01:46.292Z,9.60
2022-11-06T22:04:13.232Z,8.20
2022-11-06T22:06:41.812Z,9.20
2022-11-06T22:09:09.549Z,8.20
2022-11-06T22:11:37.566Z,8.20
2022-11-06T22:14:05.862Z,8.10
2022-11-06T22:16:34.642Z,9.50
2022-11-06T22:19:01.715Z,9.60
2022-11-06T22:21:29.190Z,9.80
2022-11-06T22:23:56.076Z,8.60
2022-11-06T22:26:30.711Z,9.20
2022-11-06T22:28:59.583Z,8.20
2022-11-06T22:31:26.808Z,9.80
2022-11-06T22:33:54.272Z,9.60
2022-11-06T22:36:21.911Z,9.90
2022-11-06T22:38:48.917Z,9.70
2022-11-06T22:41:17.561Z,9.40
2022-11-06T22:43:44.904Z,8.10
2022-11-06T22:46:13.879Z,8.30
2022-11-06T22:48:40.826Z,10.30
2022-11-06T22:51:08.901Z,8.20
2022-11-06T22:53:35.793Z,8.20
2022-11-06T22:56:02.922Z,8.20
2022-11-06T22:58:30.236Z,8.30
2022-11-06T23:00:57.417Z,9.40
2022-11-06T23:03:25.748Z,8.80
2022-11-06T23:05:52.673Z,8.50
2022-11-06T23:08:19.420Z,8.50
2022-11-06T23:10:46.173Z,8.60
2022-11-06T23:13:13.077Z,9.80
2022-11-06T23:15:39.973Z,8.80
2022-11-06T23:18:07.012Z,10.30
2022-11-06T23:20:34.515Z,9.40
2022-11-06T23:23:01.901Z,8.90
2022-11-06T23:25:28.998Z,9.90
2022-11-06T23:27:56.037Z,10.30
2022-11-06T23:30:22.708Z,9.80
2022-11-06T23:32:49.419Z,9.00
2022-11-06T23:35:17.214Z,10.60
2022-11-06T23:37:44.587Z,9.00
2022-11-06T23:40:11.676Z,10.40
2022-11-06T23:42:38.441Z,8.90
2022-11-06T23:45:23.799Z,10.80
2022-11-06T23:47:50.634Z,8.90
2022-11-06T23:50:17.391Z,10.30
2022-11-06T23:52:44.729Z,8.90
2022-11-06T23:55:11.620Z,9.10
2022-11-06T23:57:38.401Z,10.00
